createdAt,value
2017-12-27T00:00:58.607Z,4.28
2017-12-27T00:03:31.996Z,2.58
2017-12-27T00:06:05.350Z,3.33
2017-12-27T00:08:38.481Z,9.52
2017-12-27T00:11:11.672Z,8.45
2017-12-27T00:13:44.845Z,15.82
2017-12-27T00:16:17.897Z,10.13
2017-12-27T00:18:51.160Z,9.63
2017-12-27T00:21:24.456Z,6.00
2017-12-27T00:24:09.153Z,17.85
2017-12-27T00:26:43.392Z,5.60
2017-12-27T00:29:17.639Z,14.20
2017-12-27T00:31:44.643Z,4.70
2017-12-27T00:34:13.680Z,7.50
2017-12-27T00:36:41.284Z,7.40
2017-12-27T00:39:09.522Z,4.55
2017-12-27T00:41:36.999Z,10.40
2017-12-27T00:44:05.962Z,8.75
2017-12-27T00:46:34.248Z,6.65
2017-12-27T00:49:02.724Z,7.55
2017-12-27T00:51:30.297Z,10.30
2017-12-27T00:53:58.196Z,6.47
2017-12-27T00:56:26.494Z,4.20
2017-12-27T00:58:55.560Z,6.50
2017-12-27T01:01:23.097Z,3.85
2017-12-27T01:03:50.616Z,8.48
2017-12-27T01:06:18.884Z,5.18
2017-12-27T01:08:46.359Z,6.25
2017-12-27T01:11:14.653Z,7.13
2017-12-27T01:13:43.541Z,4.00
2017-12-27T01:16:11.825Z,3.33
2017-12-27T01:18:40.290Z,5.40
2017-12-27T01:21:07.788Z,5.70
2017-12-27T01:23:35.319Z,8.25
2017-12-27T01:26:02.805Z,9.88
2017-12-27T01:28:30.300Z,5.00
2017-12-27T01:30:57.839Z,6.25
2017-12-27T01:33:26.080Z,4.10
2017-12-27T01:35:53.599Z,5.85
2017-12-27T01:38:21.086Z,3.10
2017-12-27T01:40:48.571Z,4.78
2017-12-27T01:43:16.158Z,4.22
2017-12-27T01:45:44.422Z,5.82
2017-12-27T01:48:11.924Z,4.82
2017-12-27T01:50:39.444Z,5.75
2017-12-27T01:53:07.945Z,4.30
2017-12-27T01:55:36.223Z,4.07
2017-12-27T01:58:03.693Z,9.10
2017-12-27T02:00:32.314Z,8.00
2017-12-27T02:02:59.807Z,2.95
2017-12-27T02:05:27.357Z,3.90
2017-12-27T02:07:54.856Z,3.72
2017-12-27T02:10:22.793Z,2.30
2017-12-27T02:12:50.278Z,4.22
2017-12-27T02:15:18.535Z,4.30
2017-12-27T02:17:46.036Z,4.10
2017-12-27T02:20:13.854Z,4.72
2017-12-27T02:22:41.348Z,4.57
2017-12-27T02:25:08.835Z,5.78
2017-12-27T02:27:36.342Z,4.18
2017-12-27T02:30:03.837Z,2.15
2017-12-27T02:32:31.370Z,2.87
2017-12-27T02:34:58.905Z,3.25
2017-12-27T02:37:26.417Z,4.07
2017-12-27T02:43:03.579Z,2.53
2017-12-27T02:45:31.069Z,5.25
2017-12-27T02:47:58.673Z,6.20
2017-12-27T02:50:26.939Z,6.80
2017-12-27T02:52:54.445Z,8.00
2017-12-27T02:55:21.945Z,5.03
2017-12-27T02:57:49.449Z,3.55
2017-12-27T03:00:17.706Z,2.60
2017-12-27T03:02:45.184Z,3.97
2017-12-27T03:05:13.483Z,3.25
2017-12-27T03:07:41.741Z,7.97
2017-12-27T03:10:09.993Z,3.87
2017-12-27T03:12:37.481Z,1.60
2017-12-27T03:15:05.767Z,3.90
2017-12-27T03:17:33.326Z,3.03
2017-12-27T03:20:01.021Z,7.03
2017-12-27T03:22:31.149Z,3.65
2017-12-27T03:24:58.645Z,2.22
2017-12-27T03:27:26.142Z,2.17
2017-12-27T03:29:53.734Z,3.12
2017-12-27T03:32:22.133Z,2.60
2017-12-27T03:34:49.893Z,3.25
2017-12-27T03:37:17.433Z,3.40
2017-12-27T03:39:46.941Z,2.15
2017-12-27T03:42:16.150Z,2.10
2017-12-27T03:44:45.151Z,3.17
2017-12-27T03:47:13.412Z,2.60
2017-12-27T03:49:40.990Z,2.05
2017-12-27T03:52:09.265Z,3.08
2017-12-27T03:54:37.508Z,5.22
2017-12-27T03:57:05.118Z,4.12
2017-12-27T03:59:33.733Z,2.15
2017-12-27T04:02:01.954Z,4.43
2017-12-27T04:04:29.585Z,3.00
2017-12-27T04:06:58.841Z,3.45
2017-12-27T04:09:26.445Z,4.55
2017-12-27T04:11:53.924Z,3.85
2017-12-27T04:14:22.305Z,3.50
2017-12-27T04:16:49.780Z,3.95
2017-12-27T04:19:18.056Z,3.45
2017-12-27T04:21:45.541Z,5.30
2017-12-27T04:24:13.044Z,3.10
2017-12-27T04:26:41.300Z,2.35
2017-12-27T04:29:09.688Z,4.50
2017-12-27T04:31:37.968Z,2.62
2017-12-27T04:34:06.232Z,3.97
2017-12-27T04:36:34.680Z,4.85
2017-12-27T04:39:02.172Z,4.22
2017-12-27T04:41:29.672Z,7.78
2017-12-27T04:43:58.588Z,7.25
2017-12-27T04:46:26.096Z,4.43
2017-12-27T04:48:53.684Z,4.82
2017-12-27T04:51:21.936Z,3.10
2017-12-27T04:53:49.439Z,3.78
2017-12-27T04:56:17.720Z,3.40
2017-12-27T04:58:46.740Z,4.47
2017-12-27T05:01:14.304Z,3.58
2017-12-27T05:03:41.856Z,6.25
2017-12-27T05:06:09.350Z,4.28
2017-12-27T05:08:36.858Z,6.28
2017-12-27T05:11:04.336Z,3.80
2017-12-27T05:13:32.592Z,3.78
2017-12-27T05:16:00.083Z,4.80
2017-12-27T05:18:27.676Z,4.57
2017-12-27T05:20:55.936Z,10.48
2017-12-27T05:23:23.408Z,3.97
2017-12-27T05:25:50.895Z,4.18
2017-12-27T05:28:18.380Z,9.05
2017-12-27T05:30:45.891Z,3.62
2017-12-27T05:33:13.428Z,4.50
2017-12-27T05:35:40.945Z,4.15
2017-12-27T05:38:08.420Z,3.97
2017-12-27T05:40:36.023Z,4.32
2017-12-27T05:43:05.064Z,4.12
2017-12-27T05:45:32.560Z,5.32
2017-12-27T05:48:00.064Z,3.20
2017-12-27T05:50:28.332Z,3.90
2017-12-27T05:52:56.636Z,5.37
2017-12-27T05:55:24.111Z,6.15
2017-12-27T05:57:51.808Z,5.45
2017-12-27T06:00:19.337Z,2.12
2017-12-27T06:02:46.928Z,4.60
2017-12-27T06:05:14.529Z,3.20
2017-12-27T06:07:42.792Z,4.25
2017-12-27T06:10:10.277Z,4.10
2017-12-27T06:12:38.558Z,4.70
2017-12-27T06:15:06.815Z,5.62
2017-12-27T06:17:34.308Z,12.60
2017-12-27T06:20:02.581Z,5.37
2017-12-27T06:22:31.709Z,4.62
2017-12-27T06:24:59.231Z,5.18
2017-12-27T06:27:26.823Z,4.18
2017-12-27T06:29:55.076Z,7.22
2017-12-27T06:32:22.559Z,7.10
2017-12-27T06:34:50.816Z,10.32
2017-12-27T06:37:18.300Z,5.85
2017-12-27T06:39:45.867Z,9.90
2017-12-27T06:42:14.136Z,5.25
2017-12-27T06:44:42.379Z,4.10
2017-12-27T06:47:10.500Z,4.85
2017-12-27T06:49:38.783Z,3.92
2017-12-27T06:52:07.035Z,2.55
2017-12-27T06:54:36.044Z,2.53
2017-12-27T06:57:03.609Z,2.22
2017-12-27T06:59:31.075Z,5.47
2017-12-27T07:01:59.474Z,4.18
2017-12-27T07:04:27.729Z,2.65
2017-12-27T07:06:55.237Z,2.42
2017-12-27T07:09:22.739Z,2.87
2017-12-27T07:11:50.225Z,7.18
2017-12-27T07:14:17.751Z,2.65
2017-12-27T07:16:45.920Z,2.17
2017-12-27T07:19:13.386Z,4.90
2017-12-27T07:21:41.158Z,4.10
2017-12-27T07:24:08.665Z,7.07
2017-12-27T07:26:36.949Z,7.53
2017-12-27T07:29:05.198Z,4.03
2017-12-27T07:31:32.673Z,3.60
2017-12-27T07:34:00.180Z,4.45
2017-12-27T07:36:27.710Z,6.45
2017-12-27T07:38:55.236Z,7.75
2017-12-27T07:41:22.732Z,3.50
2017-12-27T07:43:50.203Z,5.20
2017-12-27T07:46:18.468Z,5.40
2017-12-27T07:48:45.974Z,6.45
2017-12-27T07:51:13.488Z,6.97
2017-12-27T07:53:40.966Z,6.35
2017-12-27T07:56:08.472Z,7.70
2017-12-27T07:58:36.032Z,7.85
2017-12-27T08:01:03.517Z,12.63
2017-12-27T08:03:31.018Z,6.82
2017-12-27T08:05:58.504Z,11.20
2017-12-27T08:08:26.797Z,6.50
2017-12-27T08:10:54.783Z,10.05
2017-12-27T08:13:22.280Z,5.37
2017-12-27T08:15:49.802Z,8.40
2017-12-27T08:18:17.911Z,7.70
2017-12-27T08:20:45.846Z,9.45
2017-12-27T08:23:13.331Z,9.32
2017-12-27T08:25:40.833Z,7.80
2017-12-27T08:28:08.315Z,6.18
2017-12-27T08:30:36.598Z,11.68
2017-12-27T08:33:04.853Z,11.60
2017-12-27T08:35:32.447Z,8.65
2017-12-27T08:37:59.955Z,12.13
2017-12-27T08:40:27.434Z,7.80
2017-12-27T08:42:55.428Z,9.32
2017-12-27T08:45:23.717Z,9.05
2017-12-27T08:47:52.013Z,10.98
2017-12-27T08:50:19.598Z,11.63
2017-12-27T08:52:47.097Z,7.70
2017-12-27T08:55:14.573Z,7.60
2017-12-27T08:57:42.066Z,9.32
2017-12-27T09:00:09.849Z,11.77
2017-12-27T09:02:37.347Z,11.52
2017-12-27T09:05:04.864Z,7.05
2017-12-27T09:07:32.405Z,15.32
2017-12-27T09:10:00.689Z,13.25
2017-12-27T09:12:28.981Z,10.07
2017-12-27T09:14:57.271Z,11.85
2017-12-27T09:17:25.332Z,11.43
2017-12-27T09:19:53.621Z,10.70
2017-12-27T09:22:21.896Z,14.25
2017-12-27T09:24:50.160Z,10.60
2017-12-27T09:27:17.669Z,14.35
2017-12-27T09:29:45.231Z,9.48
2017-12-27T09:32:12.722Z,10.43
2017-12-27T09:34:40.348Z,9.32
2017-12-27T09:37:07.903Z,7.77
2017-12-27T09:39:36.170Z,9.40
2017-12-27T09:42:04.423Z,11.93
2017-12-27T09:44:31.925Z,11.53
2017-12-27T09:47:00.191Z,10.70
2017-12-27T09:49:28.484Z,9.65
2017-12-27T09:51:55.972Z,10.00
2017-12-27T09:54:23.533Z,17.33
2017-12-27T09:56:51.036Z,10.23
2017-12-27T09:59:18.555Z,10.23
2017-12-27T10:01:46.076Z,12.13
2017-12-27T10:04:13.570Z,11.40
2017-12-27T10:06:41.109Z,14.70
2017-12-27T10:09:08.697Z,8.67
2017-12-27T10:11:36.970Z,9.27
2017-12-27T10:14:05.263Z,8.63
2017-12-27T10:16:33.552Z,12.53
2017-12-27T10:19:01.856Z,11.10
2017-12-27T10:21:29.359Z,15.73
2017-12-27T10:23:57.012Z,9.63
2017-12-27T10:26:24.536Z,12.30
2017-12-27T10:28:52.031Z,12.70
2017-12-27T10:31:19.660Z,12.53
2017-12-27T10:33:48.302Z,12.37
2017-12-27T10:36:17.457Z,12.63
2017-12-27T10:38:44.954Z,10.53
2017-12-27T10:41:12.545Z,9.60
2017-12-27T10:43:41.684Z,12.90
2017-12-27T10:46:09.197Z,12.50
2017-12-27T10:48:36.704Z,17.67
2017-12-27T10:51:04.201Z,19.73
2017-12-27T10:53:31.712Z,9.00
2017-12-27T10:55:59.291Z,16.27
2017-12-27T10:58:26.857Z,30.83
2017-12-27T11:00:54.361Z,13.60
2017-12-27T11:03:21.852Z,23.57
2017-12-27T11:05:50.140Z,13.13
2017-12-27T11:08:18.416Z,15.80
2017-12-27T11:10:46.712Z,13.37
2017-12-27T11:13:14.208Z,15.50
2017-12-27T11:15:41.695Z,11.87
2017-12-27T11:18:09.188Z,9.47
2017-12-27T11:20:36.764Z,12.90
2017-12-27T11:23:05.046Z,13.57
2017-12-27T11:25:33.315Z,12.53
2017-12-27T11:28:01.585Z,9.93
2017-12-27T11:30:29.099Z,15.83
2017-12-27T11:32:56.624Z,13.80
2017-12-27T11:35:24.876Z,12.27
2017-12-27T11:37:52.356Z,10.10
2017-12-27T11:40:19.868Z,12.67
2017-12-27T11:42:47.442Z,13.43
2017-12-27T11:45:14.964Z,11.00
2017-12-27T11:47:44.465Z,9.07
2017-12-27T11:50:15.669Z,11.20
2017-12-27T11:52:43.152Z,12.37
2017-12-27T11:55:11.715Z,14.70
2017-12-27T11:57:39.590Z,10.17
2017-12-27T12:00:07.056Z,14.60
2017-12-27T12:02:34.555Z,9.10
2017-12-27T12:05:02.854Z,13.67
2017-12-27T12:07:32.386Z,7.53
2017-12-27T12:09:59.864Z,12.50
2017-12-27T12:12:27.382Z,10.17
2017-12-27T12:14:54.993Z,11.40
2017-12-27T12:17:22.501Z,9.77
2017-12-27T12:19:50.765Z,11.30
2017-12-27T12:22:18.266Z,7.43
2017-12-27T12:24:45.760Z,8.70
2017-12-27T12:27:13.283Z,9.00
2017-12-27T12:29:41.536Z,9.50
2017-12-27T12:32:09.114Z,9.83
2017-12-27T12:34:37.425Z,12.53
2017-12-27T12:37:04.914Z,8.00
2017-12-27T12:39:32.421Z,5.50
2017-12-27T12:42:00.681Z,8.97
2017-12-27T12:44:28.196Z,11.63
2017-12-27T12:46:55.731Z,8.50
2017-12-27T12:49:23.989Z,9.63
2017-12-27T12:51:53.017Z,19.70
2017-12-27T12:54:21.248Z,7.63
2017-12-27T12:56:48.753Z,6.50
2017-12-27T12:59:17.171Z,9.37
2017-12-27T13:01:44.661Z,11.70
2017-12-27T13:04:12.141Z,14.33
2017-12-27T13:06:39.673Z,13.90
2017-12-27T13:09:07.168Z,11.43
2017-12-27T13:11:34.680Z,11.30
2017-12-27T13:14:02.180Z,11.00
2017-12-27T13:16:29.746Z,8.60
2017-12-27T13:18:57.313Z,10.20
2017-12-27T13:21:24.800Z,14.27
2017-12-27T13:23:52.281Z,7.53
2017-12-27T13:26:20.617Z,9.47
2017-12-27T13:28:48.121Z,14.90
2017-12-27T13:31:16.389Z,10.43
2017-12-27T13:33:44.668Z,15.90
2017-12-27T13:36:12.930Z,11.67
2017-12-27T13:38:40.464Z,9.80
2017-12-27T13:41:08.057Z,8.33
2017-12-27T13:43:36.603Z,10.43
2017-12-27T13:46:04.151Z,10.73
2017-12-27T13:48:33.505Z,11.87
2017-12-27T13:51:01.048Z,9.37
2017-12-27T13:53:30.921Z,8.67
2017-12-27T13:55:59.202Z,12.17
2017-12-27T13:58:27.485Z,12.63
2017-12-27T14:00:55.737Z,11.23
2017-12-27T14:03:23.240Z,11.20
2017-12-27T14:05:51.628Z,13.70
2017-12-27T14:08:19.149Z,12.90
2017-12-27T14:10:46.648Z,12.33
2017-12-27T14:13:14.924Z,11.57
2017-12-27T14:15:43.794Z,8.23
2017-12-27T14:18:11.300Z,11.40
2017-12-27T14:20:38.786Z,16.27
2017-12-27T14:23:06.319Z,18.73
2017-12-27T14:25:34.598Z,13.97
2017-12-27T14:28:02.129Z,14.10
2017-12-27T14:30:29.657Z,13.50
2017-12-27T14:32:57.860Z,17.60
2017-12-27T14:35:25.372Z,18.70
2017-12-27T14:37:53.693Z,16.03
2017-12-27T14:40:21.345Z,25.83
2017-12-27T14:42:48.895Z,13.53
2017-12-27T14:45:17.385Z,14.07
2017-12-27T14:47:44.974Z,16.90
2017-12-27T14:50:14.261Z,13.63
2017-12-27T14:52:41.845Z,14.97
2017-12-27T14:55:09.447Z,13.13
2017-12-27T14:57:37.810Z,18.87
2017-12-27T15:00:05.295Z,16.20
2017-12-27T15:02:33.618Z,16.37
2017-12-27T15:05:01.106Z,20.77
2017-12-27T15:07:28.602Z,15.73
2017-12-27T15:09:56.904Z,17.67
2017-12-27T15:12:24.437Z,16.00
2017-12-27T15:14:52.710Z,15.90
2017-12-27T15:17:20.209Z,16.57
2017-12-27T15:19:47.741Z,17.27
2017-12-27T15:22:15.912Z,16.50
2017-12-27T15:24:43.444Z,19.23
2017-12-27T15:27:10.975Z,14.30
2017-12-27T15:29:39.234Z,17.80
2017-12-27T15:32:07.500Z,14.70
2017-12-27T15:34:34.992Z,15.30
2017-12-27T15:37:02.492Z,15.93
2017-12-27T15:39:31.929Z,13.40
2017-12-27T15:42:00.420Z,15.90
2017-12-27T15:44:27.937Z,16.23
2017-12-27T15:46:55.426Z,16.23
2017-12-27T15:49:24.652Z,23.60
2017-12-27T15:51:52.160Z,18.77
2017-12-27T15:54:19.825Z,15.80
2017-12-27T15:56:47.407Z,15.40
2017-12-27T15:59:14.934Z,16.67
2017-12-27T16:01:42.440Z,21.20
2017-12-27T16:04:10.134Z,19.00
2017-12-27T16:06:37.858Z,18.17
2017-12-27T16:09:05.560Z,16.20
2017-12-27T16:11:34.028Z,16.83
2017-12-27T16:14:01.523Z,15.57
2017-12-27T16:16:29.041Z,16.77
2017-12-27T16:18:56.544Z,24.60
2017-12-27T16:21:24.040Z,15.77
2017-12-27T16:23:52.968Z,20.73
2017-12-27T16:26:20.474Z,19.30
2017-12-27T16:28:47.952Z,15.50
2017-12-27T16:31:16.256Z,16.47
2017-12-27T16:33:43.754Z,15.87
2017-12-27T16:36:11.269Z,15.70
2017-12-27T16:38:39.753Z,15.37
2017-12-27T16:41:08.003Z,17.03
2017-12-27T16:43:35.520Z,16.80
2017-12-27T16:46:03.033Z,16.33
2017-12-27T16:48:30.538Z,20.87
2017-12-27T16:50:58.093Z,17.60
2017-12-27T16:53:25.607Z,21.07
2017-12-27T16:55:53.908Z,20.93
2017-12-27T16:58:21.418Z,27.93
2017-12-27T17:00:48.967Z,17.83
2017-12-27T17:03:17.874Z,53.70
2017-12-27T17:05:46.072Z,21.30
2017-12-27T17:08:13.580Z,19.80
2017-12-27T17:10:41.894Z,22.80
2017-12-27T17:13:09.455Z,26.70
2017-12-27T17:15:36.975Z,21.30
2017-12-27T17:18:04.677Z,20.40
2017-12-27T17:20:32.241Z,22.00
2017-12-27T17:22:59.776Z,27.57
2017-12-27T17:25:27.286Z,22.23
2017-12-27T17:27:54.805Z,21.83
2017-12-27T17:30:23.088Z,31.07
2017-12-27T17:32:51.365Z,20.70
2017-12-27T17:35:18.883Z,22.80
2017-12-27T17:37:46.374Z,24.43
2017-12-27T17:40:13.865Z,26.67
2017-12-27T17:42:42.178Z,28.10
2017-12-27T17:45:09.709Z,24.93
2017-12-27T17:47:37.244Z,27.60
2017-12-27T17:50:04.734Z,25.97
2017-12-27T17:52:33.029Z,40.70
2017-12-27T17:55:01.343Z,29.37
2017-12-27T17:57:29.523Z,26.83
2017-12-27T17:59:57.635Z,27.40
2017-12-27T18:02:25.211Z,28.57
2017-12-27T18:04:53.561Z,32.30
2017-12-27T18:07:21.063Z,29.63
2017-12-27T18:09:49.323Z,23.83
2017-12-27T18:12:16.844Z,26.63
2017-12-27T18:14:44.892Z,31.73
2017-12-27T18:17:13.750Z,29.97
2017-12-27T18:19:41.238Z,26.20
2017-12-27T18:22:09.560Z,31.40
2017-12-27T18:24:37.046Z,23.23
2017-12-27T18:27:04.576Z,28.80
2017-12-27T18:29:32.144Z,28.10
2017-12-27T18:31:59.654Z,36.40
2017-12-27T18:34:28.030Z,24.73
2017-12-27T18:36:55.773Z,24.93
2017-12-27T18:39:23.285Z,20.67
2017-12-27T18:41:51.486Z,23.67
2017-12-27T18:44:20.065Z,22.40
2017-12-27T18:46:47.575Z,27.67
2017-12-27T18:49:15.872Z,33.73
2017-12-27T18:51:43.414Z,27.03
2017-12-27T18:54:10.930Z,25.00
2017-12-27T18:56:39.184Z,20.90
2017-12-27T18:59:07.527Z,24.70
2017-12-27T19:01:35.023Z,27.13
2017-12-27T19:04:03.719Z,26.37
2017-12-27T19:06:31.407Z,25.67
2017-12-27T19:08:59.677Z,19.33
2017-12-27T19:11:29.084Z,27.50
2017-12-27T19:13:57.571Z,21.80
2017-12-27T19:16:25.840Z,22.37
2017-12-27T19:18:53.464Z,28.70
2017-12-27T19:21:20.932Z,39.07
2017-12-27T19:23:49.231Z,27.47
2017-12-27T19:26:16.818Z,41.43
2017-12-27T19:28:44.421Z,33.10
2017-12-27T19:31:11.941Z,35.50
2017-12-27T19:33:39.462Z,32.83
2017-12-27T19:36:06.997Z,31.97
2017-12-27T19:38:35.263Z,35.33
2017-12-27T19:41:02.755Z,33.80
2017-12-27T19:43:31.046Z,25.53
2017-12-27T19:45:58.570Z,25.07
2017-12-27T19:48:26.850Z,25.73
2017-12-27T19:50:55.381Z,31.17
2017-12-27T19:53:22.892Z,28.50
2017-12-27T19:55:50.403Z,31.50
2017-12-27T19:58:17.903Z,27.57
2017-12-27T20:00:45.392Z,30.63
2017-12-27T20:03:12.909Z,30.30
2017-12-27T20:05:40.469Z,25.10
2017-12-27T20:08:07.977Z,26.93
2017-12-27T20:10:35.569Z,22.30
2017-12-27T20:13:03.095Z,21.30
2017-12-27T20:15:30.602Z,27.90
2017-12-27T20:17:58.104Z,31.33
2017-12-27T20:20:25.628Z,35.05
2017-12-27T20:22:54.227Z,27.48
2017-12-27T20:25:21.783Z,27.17
2017-12-27T20:27:49.360Z,30.98
2017-12-27T20:30:16.918Z,32.92
2017-12-27T20:32:44.489Z,35.80
2017-12-27T20:35:12.014Z,39.07
2017-12-27T20:37:40.309Z,47.75
2017-12-27T20:40:08.610Z,41.95
2017-12-27T20:42:36.904Z,46.33
2017-12-27T20:45:04.433Z,43.25
2017-12-27T20:47:32.001Z,52.53
2017-12-27T20:50:00.598Z,31.45
2017-12-27T20:52:28.375Z,36.55
2017-12-27T20:54:55.945Z,36.85
2017-12-27T20:57:25.810Z,28.15
2017-12-27T20:59:57.000Z,28.67
2017-12-27T21:02:24.551Z,29.67
2017-12-27T21:04:52.092Z,31.98
2017-12-27T21:07:19.677Z,27.02
2017-12-27T21:09:47.229Z,36.97
2017-12-27T21:12:15.529Z,31.55
2017-12-27T21:14:43.047Z,34.63
2017-12-27T21:17:10.595Z,33.30
2017-12-27T21:19:38.133Z,38.70
2017-12-27T21:22:05.630Z,31.37
2017-12-27T21:24:33.144Z,36.50
2017-12-27T21:27:00.723Z,34.08
2017-12-27T21:29:28.219Z,33.70
2017-12-27T21:31:56.249Z,35.95
2017-12-27T21:34:23.766Z,35.70
2017-12-27T21:36:51.380Z,38.50
2017-12-27T21:39:18.900Z,35.72
2017-12-27T21:41:46.534Z,37.72
2017-12-27T21:44:16.657Z,33.22
2017-12-27T21:46:44.222Z,39.17
2017-12-27T21:49:17.328Z,32.85
2017-12-27T21:51:45.211Z,26.12
2017-12-27T21:54:12.728Z,32.22
2017-12-27T21:56:40.434Z,42.80
2017-12-27T21:59:22.825Z,46.83
2017-12-27T22:01:50.526Z,41.53
2017-12-27T22:04:18.025Z,39.38
2017-12-27T22:06:45.553Z,50.45
2017-12-27T22:09:13.481Z,39.63
2017-12-27T22:11:40.996Z,35.53
2017-12-27T22:14:08.494Z,37.72
2017-12-27T22:16:35.993Z,53.95
2017-12-27T22:19:03.623Z,55.40
2017-12-27T22:21:31.129Z,55.92
2017-12-27T22:23:58.639Z,45.38
2017-12-27T22:26:26.150Z,56.63
2017-12-27T22:28:53.744Z,38.65
2017-12-27T22:31:22.464Z,50.25
2017-12-27T22:33:50.841Z,42.58
2017-12-27T22:36:18.395Z,61.37
2017-12-27T22:38:47.000Z,45.15
2017-12-27T22:41:14.511Z,39.88
2017-12-27T22:43:42.228Z,35.33
2017-12-27T22:46:09.782Z,31.40
2017-12-27T22:48:37.673Z,35.28
2017-12-27T22:51:05.641Z,34.63
2017-12-27T22:53:33.149Z,44.38
2017-12-27T22:56:00.645Z,49.15
2017-12-27T22:58:29.768Z,29.80
2017-12-27T23:00:57.333Z,37.10
2017-12-27T23:03:24.963Z,25.80
2017-12-27T23:05:52.543Z,34.22
2017-12-27T23:08:20.624Z,31.17
2017-12-27T23:10:48.891Z,31.13
2017-12-27T23:13:17.166Z,37.00
2017-12-27T23:15:44.741Z,27.60
2017-12-27T23:18:13.948Z,34.03
2017-12-27T23:20:43.333Z,35.35
2017-12-27T23:23:10.883Z,25.65
2017-12-27T23:25:38.426Z,31.07
2017-12-27T23:28:06.012Z,34.55
2017-12-27T23:30:33.519Z,26.87
2017-12-27T23:33:01.920Z,33.60
2017-12-27T23:35:30.129Z,31.92
2017-12-27T23:37:57.637Z,31.42
2017-12-27T23:40:25.977Z,33.75
2017-12-27T23:42:53.662Z,27.63
2017-12-27T23:45:22.687Z,30.52
2017-12-27T23:47:52.204Z,26.85
2017-12-27T23:50:19.765Z,23.95
2017-12-27T23:52:47.267Z,25.85
2017-12-27T23:55:14.765Z,24.70
2017-12-27T23:57:42.289Z,27.98
